createdAt,value
2018-04-22T00:04:58.017Z,8.57
2018-04-22T00:10:01.249Z,6.40
2018-04-22T00:15:04.523Z,8.53
2018-04-22T00:20:07.776Z,7.00
2018-04-22T00:25:11.808Z,8.67
2018-04-22T00:30:15.232Z,9.50
2018-04-22T00:35:19.247Z,6.37
2018-04-22T00:40:22.508Z,9.90
2018-04-22T00:45:25.762Z,8.43
2018-04-22T00:50:29.799Z,8.50
2018-04-22T00:55:33.055Z,5.43
2018-04-22T01:00:36.308Z,6.00
2018-04-22T01:05:40.384Z,7.93
2018-04-22T01:10:43.627Z,5.90
2018-04-22T01:15:46.887Z,5.90
2018-04-22T01:20:50.165Z,4.67
2018-04-22T01:25:54.172Z,4.60
2018-04-22T01:30:58.211Z,9.47
2018-04-22T01:36:02.247Z,8.17
2018-04-22T01:41:05.535Z,4.70
2018-04-22T01:46:08.800Z,4.57
2018-04-22T01:51:12.063Z,6.83
2018-04-22T01:56:16.100Z,6.33
2018-04-22T02:01:19.382Z,5.13
2018-04-22T02:06:22.632Z,5.07
2018-04-22T02:11:25.932Z,5.63
2018-04-22T02:16:29.182Z,6.17
2018-04-22T02:21:32.477Z,4.70
2018-04-22T02:26:35.729Z,7.30
2018-04-22T02:31:39.038Z,7.23
2018-04-22T02:36:42.269Z,5.30
2018-04-22T02:41:45.526Z,8.40
2018-04-22T02:46:48.783Z,6.67
2018-04-22T02:51:52.040Z,7.97
2018-04-22T02:56:56.180Z,11.03
2018-04-22T03:01:59.448Z,5.03
2018-04-22T03:07:02.706Z,6.10
2018-04-22T03:12:05.972Z,10.00
2018-04-22T03:17:09.238Z,6.10
2018-04-22T03:22:12.554Z,9.80
2018-04-22T03:27:15.792Z,10.47
2018-04-22T03:32:19.077Z,8.27
2018-04-22T03:37:22.337Z,7.17
2018-04-22T03:42:25.598Z,8.70
2018-04-22T03:47:28.860Z,9.13
2018-04-22T03:52:32.123Z,7.83
2018-04-22T03:57:35.441Z,10.83
2018-04-22T04:02:38.709Z,8.17
2018-04-22T04:07:42.737Z,5.40
2018-04-22T04:12:45.995Z,7.37
2018-04-22T04:23:38.596Z,8.27
2018-04-22T04:28:41.851Z,6.47
2018-04-22T04:33:46.844Z,7.97
2018-04-22T04:38:50.099Z,5.70
2018-04-22T04:43:53.359Z,5.63
2018-04-22T04:48:56.606Z,5.87
2018-04-22T04:53:59.861Z,4.93
2018-04-22T04:59:03.119Z,5.80
2018-04-22T05:04:06.383Z,6.90
2018-04-22T05:09:09.647Z,7.00
2018-04-22T05:14:13.657Z,5.93
2018-04-22T05:19:16.924Z,7.80
2018-04-22T05:24:20.252Z,7.93
2018-04-22T05:29:24.208Z,5.73
2018-04-22T05:34:27.473Z,5.87
2018-04-22T05:39:30.763Z,5.47
2018-04-22T05:44:34.744Z,5.73
2018-04-22T05:49:38.003Z,5.10
2018-04-22T05:54:41.267Z,10.93
2018-04-22T05:59:44.569Z,5.57
2018-04-22T06:04:47.807Z,5.77
2018-04-22T06:09:51.116Z,6.23
2018-04-22T06:14:55.140Z,10.23
2018-04-22T06:19:59.163Z,10.40
2018-04-22T06:25:02.429Z,8.60
2018-04-22T06:30:05.697Z,11.77
2018-04-22T06:35:08.983Z,9.23
2018-04-22T06:40:13.023Z,8.83
2018-04-22T06:45:16.275Z,6.50
2018-04-22T06:50:19.518Z,7.23
2018-04-22T06:55:24.319Z,13.40
2018-04-22T07:00:27.589Z,12.77
2018-04-22T07:05:32.891Z,9.10
2018-04-22T07:10:36.360Z,13.37
2018-04-22T07:15:39.614Z,13.63
2018-04-22T07:20:42.883Z,12.53
2018-04-22T07:25:46.132Z,6.57
2018-04-22T07:30:49.383Z,9.47
2018-04-22T07:35:53.415Z,13.00
2018-04-22T07:40:56.683Z,12.67
2018-04-22T07:45:59.957Z,12.53
2018-04-22T07:51:03.215Z,13.17
2018-04-22T07:56:07.244Z,13.23
2018-04-22T08:01:11.277Z,7.37
2018-04-22T08:06:15.292Z,13.37
2018-04-22T08:11:19.320Z,11.47
2018-04-22T08:16:22.635Z,13.40
2018-04-22T08:21:25.874Z,6.77
2018-04-22T08:26:29.122Z,7.40
2018-04-22T08:31:32.372Z,8.60
2018-04-22T08:36:35.742Z,13.97
2018-04-22T08:41:39.153Z,8.27
2018-04-22T08:46:42.434Z,12.83
2018-04-22T08:51:45.687Z,8.07
2018-04-22T08:56:48.927Z,9.73
2018-04-22T09:01:52.179Z,14.93
2018-04-22T09:06:55.443Z,14.27
2018-04-22T09:11:58.716Z,13.93
2018-04-22T09:17:01.979Z,15.13
2018-04-22T09:22:05.248Z,13.23
2018-04-22T09:27:09.279Z,7.87
2018-04-22T09:32:13.303Z,14.00
2018-04-22T09:37:16.571Z,9.70
2018-04-22T09:42:19.902Z,13.33
2018-04-22T09:47:23.136Z,14.00
2018-04-22T09:52:26.439Z,9.43
2018-04-22T09:57:29.719Z,13.20
2018-04-22T10:02:33.050Z,7.50
2018-04-22T10:07:37.073Z,7.37
2018-04-22T10:12:41.223Z,11.13
2018-04-22T10:17:44.478Z,10.70
2018-04-22T10:22:47.731Z,11.80
2018-04-22T10:27:50.997Z,12.90
2018-04-22T10:32:55.171Z,12.27
2018-04-22T10:37:58.596Z,10.97
2018-04-22T10:43:01.874Z,9.77
2018-04-22T10:48:05.136Z,8.93
2018-04-22T10:53:08.396Z,6.67
2018-04-22T10:58:12.436Z,10.70
2018-04-22T11:03:15.696Z,9.20
2018-04-22T11:08:18.983Z,10.70
2018-04-22T11:13:22.246Z,8.53
2018-04-22T11:18:26.281Z,5.97
2018-04-22T11:23:30.316Z,5.53
2018-04-22T11:28:33.596Z,5.30
2018-04-22T11:33:36.845Z,7.83
2018-04-22T11:38:40.366Z,7.53
2018-04-22T11:43:43.636Z,7.87
2018-04-22T11:48:46.903Z,9.37
2018-04-22T11:53:50.186Z,9.17
2018-04-22T11:58:53.504Z,7.57
2018-04-22T12:03:56.776Z,5.50
2018-04-22T12:09:00.062Z,6.27
2018-04-22T12:14:03.347Z,6.70
2018-04-22T12:19:06.612Z,6.30
2018-04-22T12:24:09.884Z,7.03
2018-04-22T12:29:13.138Z,7.27
2018-04-22T12:34:16.424Z,6.10
2018-04-22T12:39:19.704Z,5.67
2018-04-22T12:44:22.972Z,4.73
2018-04-22T12:49:26.235Z,5.87
2018-04-22T12:54:29.528Z,4.83
2018-04-22T12:59:32.791Z,5.90
2018-04-22T13:04:36.060Z,4.50
2018-04-22T13:09:39.331Z,5.07
2018-04-22T13:14:42.581Z,5.10
2018-04-22T13:19:45.871Z,5.70
2018-04-22T13:24:49.138Z,4.30
2018-04-22T13:29:52.395Z,6.10
2018-04-22T13:34:56.482Z,5.40
2018-04-22T13:39:59.762Z,6.60
2018-04-22T13:45:03.034Z,7.10
2018-04-22T13:50:06.275Z,5.27
2018-04-22T13:55:09.731Z,5.70
2018-04-22T14:00:13.799Z,5.30
2018-04-22T14:05:17.048Z,5.60
2018-04-22T14:10:20.333Z,5.97
2018-04-22T14:15:24.373Z,5.63
2018-04-22T14:20:27.693Z,5.40
2018-04-22T14:25:30.944Z,5.93
2018-04-22T14:30:34.220Z,4.73
2018-04-22T14:35:37.498Z,5.30
2018-04-22T14:40:41.013Z,5.40
2018-04-22T14:45:56.026Z,5.40
2018-04-22T14:50:59.279Z,5.30
2018-04-22T14:56:02.576Z,5.97
2018-04-22T15:01:05.861Z,5.87
2018-04-22T15:06:09.135Z,5.97
2018-04-22T15:11:12.379Z,5.93
2018-04-22T15:16:15.653Z,5.40
2018-04-22T15:21:19.003Z,5.10
2018-04-22T15:26:22.393Z,5.23
2018-04-22T15:31:25.660Z,6.53
2018-04-22T15:36:28.920Z,6.10
2018-04-22T15:41:32.218Z,5.80
2018-04-22T15:46:35.503Z,6.90
2018-04-22T15:51:38.782Z,7.07
2018-04-22T15:56:42.040Z,6.23
2018-04-22T16:01:46.980Z,6.90
2018-04-22T16:06:51.995Z,5.90
2018-04-22T16:11:56.024Z,6.13
2018-04-22T16:16:59.291Z,4.83
2018-04-22T16:22:02.572Z,5.40
2018-04-22T16:27:05.847Z,5.10
2018-04-22T16:32:09.880Z,5.57
2018-04-22T16:37:13.151Z,5.73
2018-04-22T16:42:16.419Z,6.33
2018-04-22T16:47:19.695Z,5.50
2018-04-22T16:52:24.031Z,5.17
2018-04-22T16:57:28.048Z,4.67
2018-04-22T17:02:32.091Z,5.13
2018-04-22T17:07:35.356Z,5.20
2018-04-22T17:12:38.619Z,4.77
2018-04-22T17:17:41.887Z,6.60
2018-04-22T17:22:45.159Z,7.20
2018-04-22T17:27:49.211Z,4.77
2018-04-22T17:32:52.462Z,4.57
2018-04-22T17:37:56.719Z,5.40
2018-04-22T17:43:01.926Z,5.17
2018-04-22T17:48:05.206Z,5.20
2018-04-22T17:53:08.460Z,4.63
2018-04-22T17:58:11.731Z,4.90
2018-04-22T18:03:15.009Z,4.67
2018-04-22T18:08:18.314Z,4.73
2018-04-22T18:13:21.573Z,4.83
2018-04-22T18:18:25.592Z,5.30
2018-04-22T18:23:28.883Z,5.80
2018-04-22T18:28:32.141Z,5.27
2018-04-22T18:33:35.433Z,4.90
2018-04-22T18:38:38.771Z,5.23
2018-04-22T18:43:42.159Z,4.70
2018-04-22T18:48:46.200Z,4.97
2018-04-22T18:53:49.481Z,4.43
2018-04-22T18:58:52.765Z,4.57
2018-04-22T19:03:56.025Z,4.63
2018-04-22T19:08:59.288Z,5.40
2018-04-22T19:14:02.584Z,4.70
2018-04-22T19:19:05.844Z,4.97
2018-04-22T19:24:09.106Z,4.37
2018-04-22T19:29:12.370Z,4.60
2018-04-22T19:34:16.403Z,6.80
2018-04-22T19:39:19.663Z,4.80
2018-04-22T19:44:23.709Z,5.00
2018-04-22T19:49:27.747Z,5.57
2018-04-22T19:54:31.012Z,6.50
2018-04-22T19:59:34.308Z,7.77
2018-04-22T20:04:37.604Z,6.90
2018-04-22T20:09:40.861Z,6.70
2018-04-22T20:14:44.146Z,7.00
2018-04-22T20:19:47.418Z,7.03
2018-04-22T20:24:50.690Z,8.53
2018-04-22T20:29:53.957Z,6.57
2018-04-22T20:34:57.239Z,7.60
2018-04-22T20:40:00.501Z,7.07
2018-04-22T20:45:03.777Z,6.47
2018-04-22T20:50:07.036Z,6.53
2018-04-22T20:55:10.286Z,6.03
2018-04-22T21:00:13.548Z,5.87
2018-04-22T21:05:17.629Z,5.93
2018-04-22T21:10:20.975Z,8.90
2018-04-22T21:15:24.311Z,7.33
2018-04-22T21:20:28.320Z,13.10
2018-04-22T21:25:31.632Z,13.90
2018-04-22T21:30:34.959Z,12.43
2018-04-22T21:35:38.231Z,13.73
2018-04-22T21:40:41.511Z,12.67
2018-04-22T21:45:44.779Z,7.47
2018-04-22T21:50:48.077Z,14.97
2018-04-22T21:55:51.415Z,8.60
2018-04-22T22:00:54.736Z,6.53
2018-04-22T22:05:57.999Z,16.33
2018-04-22T22:11:01.277Z,11.17
2018-04-22T22:16:05.359Z,7.43
2018-04-22T22:21:08.618Z,16.93
2018-04-22T22:26:11.878Z,7.60
2018-04-22T22:31:15.132Z,18.13
2018-04-22T22:36:18.409Z,7.60
2018-04-22T22:41:21.672Z,7.20
2018-04-22T22:46:24.971Z,11.77
2018-04-22T22:51:28.202Z,7.90
2018-04-22T22:56:31.507Z,7.17
2018-04-22T23:01:35.526Z,13.53
2018-04-22T23:06:38.786Z,16.27
2018-04-22T23:11:42.076Z,17.87
2018-04-22T23:16:45.342Z,19.27
2018-04-22T23:21:49.749Z,11.80
2018-04-22T23:26:53.632Z,20.03
2018-04-22T23:31:57.415Z,9.00
2018-04-22T23:37:01.377Z,8.60
2018-04-22T23:42:05.504Z,8.07
2018-04-22T23:47:10.151Z,11.50
2018-04-22T23:52:16.488Z,16.60
2018-04-22T23:57:20.376Z,16.20
